Time;durP1;ratioP1;P1;durP2;ratioP2;P2;SDS_P1;SDS_P2;PMS_P1;PMS_P2;Temp;Humidity;BMP_temperature;BMP_pressure;BME280_temperature;BME280_humidity;BME280_pressure;Samples;Min_cycle;Max_cycle;Signal;HPM_P1;HPM_P2
2022/01/27 00:05:04;;;;;;;0.00;0.00;;;3.50;99.90;;;;;;5001196;28;20022;-75
2022/01/27 00:07:30;;;;;;;0.00;0.00;;;3.50;99.90;;;;;;5001246;28;20023;-78
2022/01/27 00:12:42;;;;;;;0.00;0.00;;;3.50;99.90;;;;;;5001923;28;20417;-74
2022/01/27 00:15:11;;;;;;;0.00;0.00;;;3.50;99.90;;;;;;4984756;28;20162;-73
2022/01/27 00:17:45;;;;;;;0.00;0.00;;;3.50;99.90;;;;;;4984113;28;20054;-74
2022/01/27 00:20:12;;;;;;;0.00;0.00;;;3.50;99.90;;;;;;5001692;28;20029;-74
2022/01/27 00:22:38;;;;;;;0.00;0.00;;;3.50;99.90;;;;;;4984189;28;20210;-73
2022/01/27 00:25:06;;;;;;;0.00;0.00;;;3.50;99.90;;;;;;5001921;28;20029;-75
2022/01/27 00:27:33;;;;;;;0.00;0.00;;;3.50;99.90;;;;;;5001715;28;20377;-76
2022/01/27 00:30:04;;;;;;;0.00;0.00;;;3.50;99.90;;;;;;5001864;28;20061;-76
2022/01/27 00:32:31;;;;;;;0.00;0.00;;;3.50;99.90;;;;;;4984448;28;20026;-73
2022/01/27 00:34:57;;;;;;;0.00;0.00;;;3.50;99.90;;;;;;5001364;28;20025;-72
2022/01/27 00:37:23;;;;;;;0.00;0.00;;;3.50;99.90;;;;;;4984244;28;20018;-73
2022/01/27 00:39:49;;;;;;;0.00;0.00;;;3.50;99.90;;;;;;5000777;28;20030;-74
2022/01/27 00:42:14;;;;;;;0.00;0.00;;;3.50;99.90;;;;;;4983845;28;20030;-74
2022/01/27 00:44:40;;;;;;;0.00;0.00;;;3.40;99.90;;;;;;4983548;28;20022;-74
2022/01/27 00:47:06;;;;;;;0.00;0.00;;;3.40;99.90;;;;;;4983869;28;20025;-74
2022/01/27 00:49:32;;;;;;;0.00;0.00;;;3.40;99.90;;;;;;4983875;28;20076;-73
2022/01/27 00:52:00;;;;;;;0.00;0.00;;;3.40;99.90;;;;;;5000745;28;20312;-73
2022/01/27 00:54:28;;;;;;;0.00;0.00;;;3.30;99.90;;;;;;4983332;28;20022;-73
2022/01/27 01:04:31;;;;;;;0.00;0.00;;;3.40;99.90;;;;;;5000756;28;20404;-74
2022/01/27 01:06:57;;;;;;;0.00;0.00;;;3.40;99.90;;;;;;4983308;28;20044;-74
2022/01/27 01:14:36;;;;;;;0.00;0.00;;;3.40;99.90;;;;;;5001069;28;20085;-75
2022/01/27 01:30:20;;;;;;;0.00;0.00;;;3.40;99.90;;;;;;5000204;28;20029;-78
2022/01/27 01:32:57;;;;;;;0.00;0.00;;;3.40;99.90;;;;;;4982881;28;20213;-75
2022/01/27 01:35:29;;;;;;;0.00;0.00;;;3.50;99.90;;;;;;5000503;28;20317;-77
2022/01/27 01:37:56;;;;;;;0.00;0.00;;;3.40;99.90;;;;;;4982628;28;20068;-75
2022/01/27 01:40:23;;;;;;;0.00;0.00;;;3.50;99.90;;;;;;4983089;28;20126;-74
2022/01/27 01:42:48;;;;;;;0.00;0.00;;;3.40;99.90;;;;;;4982761;28;20026;-72
2022/01/27 01:45:34;;;;;;;0.00;0.00;;;3.50;99.90;;;;;;4982979;28;20045;-73
2022/01/27 01:48:00;;;;;;;0.00;0.00;;;3.40;99.90;;;;;;4982889;28;20022;-71
2022/01/27 01:50:26;;;;;;;0.00;0.00;;;3.50;99.90;;;;;;4982843;28;20045;-72
2022/01/27 01:52:52;;;;;;;0.00;0.00;;;3.50;99.90;;;;;;4999697;28;20077;-72
2022/01/27 01:55:18;;;;;;;0.00;0.00;;;3.40;99.90;;;;;;4982890;28;20286;-72
2022/01/27 01:57:44;;;;;;;0.00;0.00;;;3.50;99.90;;;;;;4982367;28;20194;-75
2022/01/27 02:00:13;;;;;;;0.00;0.00;;;3.50;99.90;;;;;;4982819;28;20026;-72
2022/01/27 02:02:42;;;;;;;0.00;0.00;;;3.50;99.90;;;;;;4982568;28;20363;-72
2022/01/27 02:05:08;;;;;;;;;;;3.40;99.90;;;;;;4983184;28;20022;-75
2022/01/27 02:18:08;;;;;;;0.00;0.00;;;3.50;99.90;;;;;;4999816;28;20069;-77
2022/01/27 02:20:37;;;;;;;0.00;0.00;;;3.40;99.90;;;;;;4982505;28;20022;-78
2022/01/27 02:23:09;;;;;;;0.00;0.00;;;3.40;99.90;;;;;;4982647;28;20066;-75
2022/01/27 02:25:36;;;;;;;0.00;0.00;;;3.50;99.90;;;;;;4982180;28;20100;-78
2022/01/27 02:28:02;;;;;;;0.00;0.00;;;3.40;99.90;;;;;;5000059;28;20051;-76
2022/01/27 02:30:28;;;;;;;0.00;0.00;;;3.40;99.90;;;;;;4982418;28;20030;-75
2022/01/27 02:32:55;;;;;;;0.00;0.00;;;3.50;99.90;;;;;;4985800;28;20206;-75
2022/01/27 02:35:24;;;;;;;0.00;0.00;;;3.50;99.90;;;;;;5004076;28;20030;-74
2022/01/27 02:37:53;;;;;;;0.00;0.00;;;3.50;99.90;;;;;;5003193;28;20038;-74
2022/01/27 02:40:34;;;;;;;0.00;0.00;;;3.50;99.90;;;;;;5003595;28;20087;-75
2022/01/27 02:43:02;;;;;;;0.00;0.00;;;3.50;99.90;;;;;;4986381;28;20208;-75
2022/01/27 02:45:45;;;;;;;0.00;0.00;;;3.40;99.90;;;;;;5003500;28;20320;-76
2022/01/27 02:48:13;;;;;;;0.00;0.00;;;3.40;99.90;;;;;;4986270;28;20093;-75
2022/01/27 02:50:39;;;;;;;0.00;0.00;;;3.40;99.90;;;;;;5003263;28;20306;-74
2022/01/27 02:53:07;;;;;;;0.00;0.00;;;3.50;99.90;;;;;;4985898;28;20033;-74
2022/01/27 02:55:32;;;;;;;0.00;0.00;;;3.40;99.90;;;;;;5003575;28;20298;-74
2022/01/27 02:57:59;;;;;;;0.00;0.00;;;3.60;99.90;;;;;;5002669;28;20026;-74
2022/01/27 03:00:25;;;;;;;0.00;0.00;;;3.60;99.90;;;;;;5003486;28;20029;-73
2022/01/27 03:02:50;;;;;;;0.00;0.00;;;3.50;99.90;;;;;;4985292;28;20193;-74
2022/01/27 03:05:16;;;;;;;0.00;0.00;;;3.50;99.90;;;;;;4985386;28;20093;-74
2022/01/27 03:07:47;;;;;;;0.00;0.00;;;3.50;99.90;;;;;;4986123;28;20022;-76
2022/01/27 03:10:17;;;;;;;0.00;0.00;;;3.50;99.90;;;;;;4986010;28;20057;-76
2022/01/27 03:12:43;;;;;;;0.00;0.00;;;3.60;99.90;;;;;;5003344;28;20018;-76
2022/01/27 03:15:11;;;;;;;0.00;0.00;;;3.60;99.90;;;;;;5003137;28;20034;-78
2022/01/27 03:17:37;;;;;;;0.00;0.00;;;3.50;99.90;;;;;;5002826;28;20018;-78
2022/01/27 03:20:03;;;;;;;0.00;0.00;;;3.50;99.90;;;;;;5002910;28;20085;-77
2022/01/27 03:22:29;;;;;;;0.00;0.00;;;3.50;99.90;;;;;;4985419;28;20034;-77
2022/01/27 03:24:55;;;;;;;0.00;0.00;;;3.50;99.90;;;;;;4985240;28;20018;-79
2022/01/27 03:27:24;;;;;;;0.00;0.00;;;3.50;99.90;;;;;;4984850;28;20096;-79
2022/01/27 03:29:50;;;;;;;0.00;0.00;;;3.50;99.90;;;;;;5003148;28;20018;-78
2022/01/27 03:32:16;;;;;;;0.00;0.00;;;3.50;99.90;;;;;;4985427;28;20065;-79
2022/01/27 03:34:42;;;;;;;0.00;0.00;;;3.50;99.90;;;;;;4984913;28;20030;-79
2022/01/27 03:37:08;;;;;;;0.00;0.00;;;3.50;99.90;;;;;;4985627;28;20022;-79
2022/01/27 03:39:37;;;;;;;0.00;0.00;;;3.50;99.90;;;;;;5002152;28;20183;-79
2022/01/27 03:42:04;;;;;;;0.00;0.00;;;3.50;99.90;;;;;;5001966;28;20065;-79
2022/01/27 03:44:29;;;;;;;0.00;0.00;;;3.50;99.90;;;;;;4984818;28;20018;-80
2022/01/27 03:46:55;;;;;;;0.00;0.00;;;3.50;99.90;;;;;;4985148;28;20023;-79
2022/01/27 03:49:21;;;;;;;0.00;0.00;;;3.40;99.90;;;;;;5002181;28;20093;-79
2022/01/27 03:51:47;;;;;;;0.00;0.00;;;3.50;99.90;;;;;;5002810;28;20026;-79
2022/01/27 03:54:14;;;;;;;0.00;0.00;;;3.50;99.90;;;;;;4985081;28;20073;-74
2022/01/27 03:56:40;;;;;;;0.00;0.00;;;3.40;99.90;;;;;;5002012;28;20022;-74
2022/01/27 03:59:06;;;;;;;0.00;0.00;;;3.50;99.90;;;;;;4984792;28;20049;-76
2022/01/27 04:01:32;;;;;;;0.00;0.00;;;3.40;99.90;;;;;;4984630;28;20293;-75
2022/01/27 04:03:59;;;;;;;0.00;0.00;;;3.50;99.90;;;;;;5002391;28;20293;-76
2022/01/27 04:06:35;;;;;;;0.00;0.00;;;3.50;99.90;;;;;;5001661;28;20090;-76
2022/01/27 04:09:03;;;;;;;0.00;0.00;;;3.50;99.90;;;;;;5002426;28;20090;-76
2022/01/27 04:11:29;;;;;;;0.00;0.00;;;3.50;99.90;;;;;;4984680;28;20113;-76
2022/01/27 04:13:54;;;;;;;0.00;0.00;;;3.50;99.90;;;;;;5001951;28;20022;-77
2022/01/27 04:16:20;;;;;;;0.00;0.00;;;3.50;99.90;;;;;;4984554;28;20065;-74
2022/01/27 04:18:46;;;;;;;0.00;0.00;;;3.50;99.90;;;;;;5001621;28;20301;-76
2022/01/27 04:21:12;;;;;;;0.00;0.00;;;3.50;99.90;;;;;;5002242;28;20030;-75
2022/01/27 04:23:38;;;;;;;0.00;0.00;;;3.50;99.90;;;;;;5001624;28;20023;-76
2022/01/27 04:26:05;;;;;;;0.00;0.00;;;3.50;99.90;;;;;;5001922;28;20025;-76
2022/01/27 04:28:33;;;;;;;0.00;0.00;;;3.50;99.90;;;;;;5001533;28;20025;-75
2022/01/27 04:31:02;;;;;;;0.00;0.00;;;3.50;99.90;;;;;;4984824;28;20261;-75
2022/01/27 04:33:31;;;;;;;;;;;3.50;99.90;;;;;;4984380;28;20027;-75
2022/01/27 04:35:59;;;;;;;0.00;0.00;;;3.50;99.90;;;;;;5001884;28;19929;-73
2022/01/27 04:38:35;;;;;;;0.00;0.00;;;3.50;99.90;;;;;;4983709;28;20022;-73
2022/01/27 04:41:11;;;;;;;0.00;0.00;;;3.50;99.90;;;;;;4984262;28;20238;-73
2022/01/27 04:48:41;;;;;;;0.00;0.00;;;3.50;99.90;;;;;;5001024;28;20022;-75
2022/01/27 04:51:10;;;;;;;0.00;0.00;;;3.50;99.90;;;;;;5001431;28;20061;-72
2022/01/27 04:53:43;;;;;;;0.00;0.00;;;3.50;99.90;;;;;;5000500;28;20034;-74
2022/01/27 04:56:12;;;;;;;0.00;0.00;;;3.40;99.90;;;;;;4984100;28;20261;-75
2022/01/27 04:58:39;;;;;;;0.00;0.00;;;3.40;99.90;;;;;;4983482;28;20030;-75
2022/01/27 05:01:05;;;;;;;0.00;0.00;;;3.40;99.90;;;;;;4984299;28;20053;-75
2022/01/27 05:03:46;;;;;;;0.00;0.00;;;3.40;99.90;;;;;;4984656;28;20276;-75
2022/01/27 05:06:11;;;;;;;0.00;0.00;;;3.40;99.90;;;;;;5002881;28;20050;-76
2022/01/27 05:08:37;;;;;;;0.00;0.00;;;3.50;99.90;;;;;;4985059;28;20244;-73
2022/01/27 05:11:12;;;;;;;0.00;0.00;;;3.40;99.90;;;;;;5003142;28;20049;-75
2022/01/27 05:13:51;;;;;;;0.00;0.00;;;3.50;99.90;;;;;;4986272;28;20022;-75
2022/01/27 05:16:17;;;;;;;0.00;0.00;;;3.40;99.90;;;;;;4984754;28;20080;-75
2022/01/27 05:18:43;;;;;;;0.00;0.00;;;3.40;99.90;;;;;;4986559;28;20301;-74
2022/01/27 05:21:08;;;;;;;0.00;0.00;;;3.40;99.90;;;;;;4986801;28;20030;-73
2022/01/27 05:23:34;;;;;;;0.00;0.00;;;3.30;99.90;;;;;;5001809;28;20226;-75
2022/01/27 05:26:00;;;;;;;0.00;0.00;;;3.30;99.90;;;;;;4983831;28;20029;-74
2022/01/27 05:28:25;;;;;;;0.00;0.00;;;3.30;99.90;;;;;;5000154;28;20018;-74
2022/01/27 05:30:51;;;;;;;0.00;0.00;;;3.40;99.90;;;;;;4983757;28;20034;-77
2022/01/27 05:33:17;;;;;;;0.00;0.00;;;3.40;99.90;;;;;;5000702;28;20022;-73
2022/01/27 05:35:46;;;;;;;0.00;0.00;;;3.30;99.90;;;;;;5000468;28;20049;-74
2022/01/27 05:38:18;;;;;;;0.00;0.00;;;3.30;99.90;;;;;;4983167;28;20022;-73
2022/01/27 05:40:44;;;;;;;0.00;0.00;;;3.30;99.90;;;;;;4983150;28;20098;-73
2022/01/27 05:43:11;;;;;;;0.00;0.00;;;3.30;99.90;;;;;;4983279;28;20023;-73
2022/01/27 05:45:55;;;;;;;0.00;0.00;;;3.20;99.90;;;;;;4999712;28;20029;-74
2022/01/27 05:48:21;;;;;;;0.00;0.00;;;3.30;99.90;;;;;;4999931;28;20046;-74
2022/01/27 05:50:47;;;;;;;0.00;0.00;;;3.30;99.90;;;;;;5000561;28;20029;-74
2022/01/27 05:53:13;;;;;;;0.00;0.00;;;3.20;99.90;;;;;;5000330;28;20045;-76
2022/01/27 05:55:39;;;;;;;0.00;0.00;;;3.30;99.90;;;;;;4982487;28;20018;-74
2022/01/27 05:58:05;;;;;;;0.00;0.00;;;3.50;99.90;;;;;;4982643;28;20372;-74
2022/01/27 06:00:30;;;;;;;0.00;0.00;;;3.40;99.90;;;;;;4999929;28;20241;-74
2022/01/27 06:02:56;;;;;;;0.00;0.00;;;3.40;99.90;;;;;;5000287;28;20261;-74
2022/01/27 06:05:22;;;;;;;0.00;0.00;;;3.40;99.90;;;;;;4981780;28;20018;-74
2022/01/27 06:07:47;;;;;;;0.00;0.00;;;3.30;99.90;;;;;;4999838;28;20022;-76
2022/01/27 06:10:13;;;;;;;0.00;0.00;;;3.40;99.90;;;;;;4982842;28;20045;-78
2022/01/27 06:12:56;;;;;;;0.00;0.00;;;3.40;99.90;;;;;;4999891;28;20277;-75
2022/01/27 06:15:22;;;;;;;0.00;0.00;;;3.30;99.90;;;;;;4999798;28;20026;-76
2022/01/27 06:17:48;;;;;;;0.00;0.00;;;3.30;99.90;;;;;;4999777;28;20015;-78
2022/01/27 06:20:14;;;;;;;0.00;0.00;;;3.30;99.90;;;;;;4982547;28;20101;-75
2022/01/27 06:22:41;;;;;;;0.00;0.00;;;3.30;99.90;;;;;;4999802;28;20299;-76
2022/01/27 06:25:07;;;;;;;0.00;0.00;;;3.30;99.90;;;;;;4982463;28;20032;-76
2022/01/27 06:27:33;;;;;;;0.00;0.00;;;3.30;99.90;;;;;;4977819;28;20121;-81
2022/01/27 06:29:59;;;;;;;0.00;0.00;;;3.30;99.90;;;;;;4979860;28;20302;-78
2022/01/27 06:32:25;;;;;;;0.00;0.00;;;3.20;99.90;;;;;;4995147;28;20023;-76
2022/01/27 06:34:50;;;;;;;0.00;0.00;;;3.20;99.90;;;;;;4995561;28;20209;-76
2022/01/27 06:37:16;;;;;;;0.00;0.00;;;3.30;99.90;;;;;;4980014;28;20030;-78
2022/01/27 06:39:41;;;;;;;0.00;0.00;;;3.30;99.90;;;;;;4994657;28;20027;-79
2022/01/27 06:42:08;;;;;;;0.00;0.00;;;3.20;99.90;;;;;;4979971;28;20320;-81
2022/01/27 06:44:36;;;;;;;0.00;0.00;;;3.20;99.90;;;;;;4979978;28;20074;-80
2022/01/27 06:47:02;;;;;;;;;;;3.20;99.90;;;;;;4979978;28;20018;-80
2022/01/27 06:49:28;;;;;;;0.00;0.00;;;3.20;99.90;;;;;;4979032;28;19940;-83
2022/01/27 06:51:54;;;;;;;0.00;0.00;;;3.20;99.90;;;;;;4981564;28;20034;-83
2022/01/27 06:54:19;;;;;;;0.00;0.00;;;3.20;99.90;;;;;;4996863;28;20241;-83
2022/01/27 06:56:45;;;;;;;0.00;0.00;;;3.20;99.90;;;;;;4981504;28;20027;-85
2022/01/27 06:59:11;;;;;;;0.00;0.00;;;3.20;99.90;;;;;;4997665;28;20026;-86
2022/01/27 07:01:39;;;;;;;0.00;0.00;;;3.30;99.90;;;;;;4995445;28;20026;-70
2022/01/27 07:04:05;;;;;;;0.00;0.00;;;3.30;99.90;;;;;;4978905;28;20045;-78
2022/01/27 07:09:15;;;;;;;0.00;0.00;;;3.20;99.90;;;;;;4980013;28;20073;-78
2022/01/27 07:11:40;;;;;;;0.00;0.00;;;3.20;99.90;;;;;;4994778;28;20213;-79
2022/01/27 07:14:06;;;;;;;0.00;0.00;;;3.20;99.90;;;;;;4978924;28;20057;-78
2022/01/27 07:16:33;;;;;;;0.00;0.00;;;3.20;99.90;;;;;;4979023;28;20409;-78
2022/01/27 07:18:59;;;;;;;0.00;0.00;;;3.20;99.90;;;;;;4998795;28;20322;-78
2022/01/27 07:21:25;;;;;;;0.00;0.00;;;3.20;99.90;;;;;;4983411;28;20162;-78
2022/01/27 07:23:51;;;;;;;0.00;0.00;;;3.20;99.90;;;;;;4983543;28;20042;-78
2022/01/27 07:26:17;;;;;;;0.00;0.00;;;3.20;99.90;;;;;;4984716;28;20027;-77
2022/01/27 07:28:42;;;;;;;0.00;0.00;;;3.20;99.90;;;;;;5002794;28;20194;-77
2022/01/27 07:31:08;;;;;;;0.00;0.00;;;3.20;99.90;;;;;;4969508;28;20165;-78
2022/01/27 07:33:34;;;;;;;0.00;0.00;;;3.20;99.90;;;;;;5002532;28;20061;-78
2022/01/27 07:35:59;;;;;;;0.00;0.00;;;3.20;99.90;;;;;;5003197;28;20045;-78
2022/01/27 07:38:26;;;;;;;0.00;0.00;;;3.30;99.90;;;;;;5002399;28;20064;-78
2022/01/27 07:40:52;;;;;;;0.00;0.00;;;3.30;99.90;;;;;;5003052;28;20026;-78
2022/01/27 07:43:18;;;;;;;0.00;0.00;;;3.40;99.90;;;;;;4984944;28;20101;-78
2022/01/27 07:45:44;;;;;;;0.00;0.00;;;3.40;99.90;;;;;;4984958;28;20240;-78
2022/01/27 07:48:10;;;;;;;0.00;0.00;;;3.40;99.90;;;;;;4985301;28;20209;-78
2022/01/27 07:50:36;;;;;;;0.00;0.00;;;3.40;99.90;;;;;;5002248;28;20037;-78
2022/01/27 07:53:02;;;;;;;0.00;0.00;;;3.50;99.90;;;;;;5002627;28;20186;-78
2022/01/27 07:55:27;;;;;;;0.00;0.00;;;3.50;99.90;;;;;;4984643;28;20205;-78
2022/01/27 07:57:53;;;;;;;0.00;0.00;;;3.50;99.90;;;;;;5002799;28;20048;-78
2022/01/27 08:00:19;;;;;;;0.00;0.00;;;3.60;99.90;;;;;;4984696;28;20026;-78
2022/01/27 08:02:45;;;;;;;0.00;0.00;;;3.50;99.90;;;;;;5001657;28;20194;-78
2022/01/27 08:05:12;;;;;;;0.00;0.00;;;3.60;99.90;;;;;;4984912;28;20335;-77
2022/01/27 08:07:38;;;;;;;0.00;0.00;;;3.60;99.90;;;;;;4984438;28;20022;-77
2022/01/27 08:10:04;;;;;;;0.00;0.00;;;3.70;99.90;;;;;;5002048;28;20033;-77
2022/01/27 08:12:29;;;;;;;0.00;0.00;;;3.70;99.90;;;;;;5000587;28;20018;-76
2022/01/27 08:14:55;;;;;;;0.00;0.00;;;3.60;99.90;;;;;;4984420;28;20328;-80
2022/01/27 08:17:21;;;;;;;0.00;0.00;;;3.60;99.90;;;;;;4983863;28;20309;-74
2022/01/27 08:19:46;;;;;;;0.00;0.00;;;3.60;99.90;;;;;;5001321;28;20030;-70
2022/01/27 08:22:12;;;;;;;0.00;0.00;;;3.60;99.90;;;;;;4984236;28;20022;-74
2022/01/27 08:24:39;;;;;;;0.00;0.00;;;3.80;99.90;;;;;;4983365;28;20073;-75
2022/01/27 08:27:06;;;;;;;0.00;0.00;;;3.80;99.90;;;;;;4983831;28;20110;-78
2022/01/27 08:29:46;;;;;;;0.00;0.00;;;3.80;99.90;;;;;;4982896;28;20030;-74
2022/01/27 08:32:17;;;;;;;0.00;0.00;;;3.80;99.90;;;;;;5000856;28;20022;-74
2022/01/27 08:34:44;;;;;;;0.00;0.00;;;3.80;99.90;;;;;;4983153;28;20018;-75
2022/01/27 08:37:17;;;;;;;0.00;0.00;;;3.80;99.90;;;;;;4983363;28;20320;-74
2022/01/27 08:39:43;;;;;;;0.00;0.00;;;3.80;99.90;;;;;;4983457;28;20094;-77
2022/01/27 08:42:09;;;;;;;0.00;0.00;;;3.90;99.90;;;;;;5001108;28;20030;-74
2022/01/27 08:44:36;;;;;;;0.00;0.00;;;3.90;99.90;;;;;;5000682;28;20202;-75
2022/01/27 08:47:03;;;;;;;0.00;0.00;;;4.00;99.90;;;;;;5001779;28;20025;-74
2022/01/27 08:49:28;;;;;;;0.00;0.00;;;4.00;99.90;;;;;;4983529;28;20065;-77
2022/01/27 08:51:55;;;;;;;0.00;0.00;;;4.00;99.90;;;;;;5001660;28;20018;-74
2022/01/27 08:54:21;;;;;;;0.00;0.00;;;4.00;99.90;;;;;;5000296;28;20072;-75
2022/01/27 08:56:47;;;;;;;0.00;0.00;;;4.10;99.90;;;;;;4983542;28;20097;-75
2022/01/27 08:59:13;;;;;;;0.00;0.00;;;4.10;99.90;;;;;;4983879;28;20029;-74
2022/01/27 09:01:40;;;;;;;0.00;0.00;;;4.20;99.90;;;;;;5000883;28;20022;-74
2022/01/27 09:04:07;;;;;;;0.00;0.00;;;4.30;99.90;;;;;;4983685;28;20026;-75
2022/01/27 09:06:33;;;;;;;0.00;0.00;;;4.40;99.90;;;;;;4983679;28;20296;-74
2022/01/27 09:09:00;;;;;;;0.00;0.00;;;4.50;99.90;;;;;;4983550;28;20030;-76
2022/01/27 09:11:29;;;;;;;0.00;0.00;;;4.50;99.90;;;;;;4983053;28;20319;-77
2022/01/27 09:13:55;;;;;;;0.00;0.00;;;4.60;99.90;;;;;;5001173;28;20045;-80
2022/01/27 09:16:23;;;;;;;0.00;0.00;;;4.60;99.90;;;;;;4983900;28;20022;-75
2022/01/27 09:18:49;;;;;;;0.00;0.00;;;4.60;99.90;;;;;;5000823;28;20030;-75
2022/01/27 09:21:21;;;;;;;0.00;0.00;;;4.60;99.90;;;;;;4983501;28;20026;-78
2022/01/27 09:23:48;;;;;;;0.00;0.00;;;4.60;99.90;;;;;;5000631;28;20029;-74
2022/01/27 09:26:41;;;;;;;0.00;0.00;;;4.60;99.90;;;;;;4983522;28;20018;-73
2022/01/27 09:28:59;;;;;;;0.00;0.00;;;4.70;99.90;;;;;;5000546;28;20022;-75
2022/01/27 09:31:25;;;;;;;0.00;0.00;;;4.70;99.90;;;;;;5000234;28;20022;-74
2022/01/27 09:33:50;;;;;;;0.00;0.00;;;4.70;99.90;;;;;;4983273;28;20022;-78
2022/01/27 09:36:16;;;;;;;0.00;0.00;;;4.80;99.90;;;;;;5000517;28;20068;-74
2022/01/27 09:38:42;;;;;;;0.00;0.00;;;4.90;99.90;;;;;;4983088;28;20031;-78
2022/01/27 09:41:10;;;;;;;0.00;0.00;;;4.90;99.90;;;;;;4983475;28;20025;-74
2022/01/27 09:43:36;;;;;;;0.00;0.00;;;5.00;99.90;;;;;;4982705;28;20026;-79
2022/01/27 09:46:05;;;;;;;0.00;0.00;;;5.10;99.90;;;;;;4999787;28;20041;-74
2022/01/27 09:48:37;;;;;;;0.00;0.00;;;5.20;99.90;;;;;;4982967;28;20029;-75
2022/01/27 09:53:48;;;;;;;0.00;0.00;;;5.30;99.90;;;;;;4999898;28;20089;-75
2022/01/27 09:56:13;;;;;;;0.00;0.00;;;5.20;99.90;;;;;;4983210;28;20014;-75
2022/01/27 09:58:39;;;;;;;0.00;0.00;;;5.30;99.90;;;;;;4999892;28;20081;-77
2022/01/27 10:01:05;;;;;;;0.00;0.00;;;5.30;99.90;;;;;;4983056;28;20076;-75
2022/01/27 10:03:31;;;;;;;0.00;0.00;;;5.20;99.90;;;;;;4982590;28;20197;-77
2022/01/27 10:06:12;;;;;;;0.00;0.00;;;5.30;99.90;;;;;;4998995;28;20213;-75
2022/01/27 10:08:41;;;;;;;0.00;0.00;;;5.30;99.90;;;;;;5000091;28;20298;-75
2022/01/27 10:11:18;;;;;;;0.00;0.00;;;5.40;99.90;;;;;;4983129;28;20213;-75
2022/01/27 10:13:46;;;;;;;0.00;0.00;;;5.50;99.90;;;;;;5000255;28;20362;-82
2022/01/27 10:16:35;;;;;;;0.00;0.00;;;5.50;99.90;;;;;;5000448;28;20245;-74
2022/01/27 10:19:06;;;;;;;0.00;0.00;;;5.50;99.90;;;;;;4982872;28;20293;-76
2022/01/27 10:21:32;;;;;;;0.00;0.00;;;5.60;99.90;;;;;;4999786;28;20030;-75
2022/01/27 10:24:26;;;;;;;0.00;0.00;;;5.60;99.90;;;;;;5000245;28;20289;-79
2022/01/27 10:27:30;;;;;;;0.00;0.00;;;5.70;99.90;;;;;;4982708;28;20339;-75
2022/01/27 10:32:43;;;;;;;0.00;0.00;;;5.70;99.90;;;;;;5000086;28;20065;-74
2022/01/27 10:35:10;;;;;;;0.00;0.00;;;5.70;99.90;;;;;;4982653;28;20260;-75
2022/01/27 10:37:57;;;;;;;0.00;0.00;;;5.80;99.90;;;;;;4982028;28;20022;-73
2022/01/27 10:40:36;;;;;;;0.00;0.00;;;6.00;99.90;;;;;;5000933;28;20030;-77
2022/01/27 10:43:11;;;;;;;0.00;0.00;;;6.00;99.90;;;;;;5001070;28;20321;-77
2022/01/27 10:45:41;;;;;;;0.00;0.00;;;6.20;99.90;;;;;;5000529;28;20305;-75
2022/01/27 10:48:15;;;;;;;0.00;0.00;;;6.30;99.90;;;;;;4983357;28;20026;-75
2022/01/27 10:50:55;;;;;;;0.00;0.00;;;6.20;99.90;;;;;;4983341;28;20022;-80
2022/01/27 10:53:21;;;;;;;0.00;0.00;;;6.10;99.90;;;;;;4987335;28;20018;-73
2022/01/27 10:56:05;;;;;;;0.00;0.00;;;6.10;99.90;;;;;;4986332;28;20189;-79
2022/01/27 10:58:31;;;;;;;0.00;0.00;;;6.10;99.90;;;;;;4985026;28;20022;-74
2022/01/27 11:01:03;;;;;;;0.00;0.00;;;6.10;99.90;;;;;;5004158;28;20018;-74
2022/01/27 11:03:28;;;;;;;0.00;0.00;;;6.10;99.90;;;;;;5003575;28;20133;-78
2022/01/27 11:05:56;;;;;;;0.00;0.00;;;6.10;99.90;;;;;;4986853;28;20043;-75
2022/01/27 11:08:24;;;;;;;0.00;0.00;;;6.10;99.90;;;;;;4986419;28;20026;-74
2022/01/27 11:10:51;;;;;;;0.00;0.00;;;6.10;99.90;;;;;;5003277;28;20057;-74
2022/01/27 11:13:19;;;;;;;0.00;0.00;;;6.10;99.90;;;;;;4986434;28;20023;-74
2022/01/27 11:15:45;;;;;;;0.00;0.00;;;6.10;99.90;;;;;;4986689;28;20033;-82
2022/01/27 11:18:13;;;;;;;0.00;0.00;;;6.20;99.90;;;;;;4987176;28;20050;-73
2022/01/27 11:20:58;;;;;;;0.00;0.00;;;6.20;99.90;;;;;;5004497;28;20305;-77
2022/01/27 11:26:08;;;;;;;0.00;0.00;;;6.30;99.90;;;;;;5003756;28;20026;-76
2022/01/27 11:28:35;;;;;;;0.00;0.00;;;6.20;99.90;;;;;;5005856;28;20010;-73
2022/01/27 11:31:19;;;;;;;0.00;0.00;;;6.30;99.90;;;;;;5003864;28;20034;-77
2022/01/27 11:34:01;;;;;;;0.00;0.00;;;6.30;99.90;;;;;;5002523;28;20305;-82
2022/01/27 11:36:29;;;;;;;0.00;0.00;;;6.40;99.90;;;;;;4986389;28;20019;-81
2022/01/27 11:38:56;;;;;;;0.00;0.00;;;6.50;99.90;;;;;;4986321;28;20026;-83
2022/01/27 11:41:37;;;;;;;0.00;0.00;;;6.40;99.90;;;;;;5003378;28;20305;-74
2022/01/27 11:44:28;;;;;;;0.00;0.00;;;6.40;99.90;;;;;;4986308;28;20026;-76
2022/01/27 11:47:17;;;;;;;0.00;0.00;;;6.40;99.90;;;;;;5004666;28;20018;-74
2022/01/27 11:50:02;;;;;;;0.00;0.00;;;6.50;99.90;;;;;;4986114;28;20065;-80
2022/01/27 11:52:47;;;;;;;0.00;0.00;;;6.50;99.90;;;;;;5003743;28;20025;-83
2022/01/27 11:55:25;;;;;;;0.00;0.00;;;6.60;99.90;;;;;;4985627;28;20024;-75
2022/01/27 11:57:54;;;;;;;0.00;0.00;;;6.70;99.90;;;;;;4985966;28;20141;-75
2022/01/27 12:00:30;;;;;;;0.00;0.00;;;6.70;99.90;;;;;;5002982;28;20027;-75
2022/01/27 12:03:02;;;;;;;0.00;0.00;;;6.70;99.90;;;;;;4985200;28;20053;-75
2022/01/27 12:05:29;;;;;;;0.00;0.00;;;6.60;99.90;;;;;;4984960;28;20018;-75
2022/01/27 12:08:13;;;;;;;0.00;0.00;;;6.70;99.90;;;;;;5003165;28;20027;-82
2022/01/27 12:10:58;;;;;;;0.00;0.00;;;6.70;99.90;;;;;;5002593;28;20048;-74
2022/01/27 12:13:44;;;;;;;0.00;0.00;;;6.80;99.90;;;;;;4985730;28;20124;-82
2022/01/27 12:16:41;;;;;;;0.00;0.00;;;6.80;99.90;;;;;;5003187;28;20021;-73
2022/01/27 12:19:12;;;;;;;0.00;0.00;;;6.80;99.90;;;;;;4985393;28;20084;-74
2022/01/27 12:21:55;;;;;;;0.00;0.00;;;6.80;99.90;;;;;;5002326;28;20089;-76
2022/01/27 12:24:28;;;;;;;0.00;0.00;;;6.80;99.90;;;;;;4985145;28;20061;-75
2022/01/27 12:27:05;;;;;;;0.00;0.00;;;6.90;99.90;;;;;;4981422;28;20232;-78
2022/01/27 12:29:34;;;;;;;0.00;0.00;;;7.00;99.90;;;;;;4981014;28;20038;-75
2022/01/27 12:32:07;;;;;;;0.00;0.00;;;7.30;99.90;;;;;;4981838;28;20019;-75
2022/01/27 12:34:35;;;;;;;0.00;0.00;;;7.50;99.90;;;;;;4997911;28;20234;-80
2022/01/27 12:37:11;;;;;;;0.00;0.00;;;7.60;99.90;;;;;;4982518;28;20054;-75
2022/01/27 12:39:43;;;;;;;0.00;0.00;;;7.80;99.90;;;;;;4981570;28;20073;-76
2022/01/27 12:42:14;;;;;;;0.00;0.00;;;7.90;99.90;;;;;;4981768;28;20134;-81
2022/01/27 12:45:13;;;;;;;0.00;0.00;;;7.90;99.90;;;;;;4981700;28;20022;-78
2022/01/27 12:47:39;;;;;;;;;;;7.90;99.90;;;;;;4996867;28;20298;-75
2022/01/27 12:50:13;;;;;;;0.00;0.00;;;8.00;99.90;;;;;;4980590;28;19952;-81
2022/01/27 12:52:42;;;;;;;0.00;0.00;;;8.00;99.90;;;;;;4996574;28;20054;-77
2022/01/27 12:55:13;;;;;;;0.00;0.00;;;8.00;99.90;;;;;;4997093;28;20019;-78
2022/01/27 12:57:40;;;;;;;0.00;0.00;;;8.00;99.90;;;;;;4981797;28;20086;-76
2022/01/27 13:00:12;;;;;;;0.00;0.00;;;8.00;99.90;;;;;;4980269;28;20302;-77
2022/01/27 13:02:38;;;;;;;0.00;0.00;;;8.10;99.90;;;;;;4991544;28;20041;-79
2022/01/27 13:05:06;;;;;;;0.00;0.00;;;8.10;99.90;;;;;;4996778;28;20070;-81
2022/01/27 13:07:37;;;;;;;0.00;0.00;;;8.10;99.90;;;;;;4995786;28;20235;-80
2022/01/27 13:10:10;;;;;;;0.00;0.00;;;8.10;99.90;;;;;;4980234;28;20031;-73
2022/01/27 13:20:13;;;;;;;0.00;0.00;;;8.00;99.90;;;;;;4981286;28;20030;-81
2022/01/27 13:22:51;;;;;;;0.00;0.00;;;8.10;99.90;;;;;;4981145;28;20030;-76
2022/01/27 13:25:19;;;;;;;0.00;0.00;;;8.10;99.90;;;;;;4996535;28;20301;-80
2022/01/27 13:28:05;;;;;;;0.00;0.00;;;8.10;99.90;;;;;;4996053;28;20345;-81
2022/01/27 13:30:33;;;;;;;0.00;0.00;;;8.20;99.90;;;;;;4983758;28;20050;-80
2022/01/27 13:32:59;;;;;;;0.00;0.00;;;8.20;99.90;;;;;;4983374;28;20018;-73
2022/01/27 13:35:24;;;;;;;0.00;0.00;;;8.20;99.90;;;;;;4984040;28;20093;-81
2022/01/27 13:37:56;;;;;;;0.00;0.00;;;8.10;99.90;;;;;;4982381;28;20025;-74
2022/01/27 13:43:14;;;;;;;0.00;0.00;;;8.10;99.90;;;;;;4999804;28;20371;-73
2022/01/27 13:45:40;;;;;;;0.00;0.00;;;8.10;99.90;;;;;;4981926;28;20029;-74
2022/01/27 13:48:20;;;;;;;0.00;0.00;;;8.10;99.90;;;;;;4981840;28;20017;-77
2022/01/27 13:50:57;;;;;;;0.00;0.00;;;8.10;99.90;;;;;;4981445;28;20053;-74
2022/01/27 13:53:24;;;;;;;0.00;0.00;;;8.10;99.90;;;;;;4999759;28;20022;-73
2022/01/27 13:56:02;;;;;;;0.00;0.00;;;8.10;99.90;;;;;;4999070;28;20019;-73
2022/01/27 13:58:30;;;;;;;0.00;0.00;;;8.00;99.90;;;;;;4982103;28;20214;-74
2022/01/27 14:01:13;;;;;;;0.00;0.00;;;8.00;99.90;;;;;;4999662;28;20351;-74
2022/01/27 14:03:46;;;;;;;0.00;0.00;;;8.00;99.90;;;;;;4981793;28;20033;-73
2022/01/27 14:06:13;;;;;;;0.00;0.00;;;8.00;99.90;;;;;;4999939;28;20014;-74
2022/01/27 14:08:46;;;;;;;0.00;0.00;;;8.00;99.90;;;;;;4981466;28;20050;-77
2022/01/27 14:11:20;;;;;;;0.00;0.00;;;8.10;99.90;;;;;;4999430;28;20073;-73
2022/01/27 14:14:01;;;;;;;0.00;0.00;;;8.10;99.90;;;;;;4981361;28;20048;-80
2022/01/27 14:16:28;;;;;;;0.00;0.00;;;8.00;99.90;;;;;;4981516;28;20364;-68
2022/01/27 14:18:54;;;;;;;0.00;0.00;;;7.90;99.90;;;;;;4998176;28;20027;-74